sensor_id;sensor_type;location;lat;lon;timestamp;pressure;altitude;pressure_sealevel;temperature;humidity
40730;BME280;26418;50.070;8.436;2024-02-23T00:00:43;97622.38;;;7.72;86.74
40730;BME280;26418;50.070;8.436;2024-02-23T00:03:09;97633.47;;;7.58;87.72
40730;BME280;26418;50.070;8.436;2024-02-23T00:05:38;97662.88;;;7.63;87.74
40730;BME280;26418;50.070;8.436;2024-02-23T00:08:04;97645.47;;;7.61;87.22
40730;BME280;26418;50.070;8.436;2024-02-23T00:10:30;97641.53;;;7.58;86.49
40730;BME280;26418;50.070;8.436;2024-02-23T00:12:55;97646.72;;;7.51;85.77
40730;BME280;26418;50.070;8.436;2024-02-23T00:15:21;97647.06;;;7.49;86.36
40730;BME280;26418;50.070;8.436;2024-02-23T00:17:46;97645.38;;;7.45;86.85
40730;BME280;26418;50.070;8.436;2024-02-23T00:20:12;97635.50;;;7.36;85.24
40730;BME280;26418;50.070;8.436;2024-02-23T00:22:38;97661.38;;;7.41;85.71
40730;BME280;26418;50.070;8.436;2024-02-23T00:25:06;97654.22;;;7.33;84.41
40730;BME280;26418;50.070;8.436;2024-02-23T00:27:38;97676.72;;;7.40;83.41
40730;BME280;26418;50.070;8.436;2024-02-23T00:30:07;97682.34;;;7.35;82.59
40730;BME280;26418;50.070;8.436;2024-02-23T00:32:39;97694.66;;;7.36;81.48
40730;BME280;26418;50.070;8.436;2024-02-23T00:35:05;97705.63;;;7.31;81.37
40730;BME280;26418;50.070;8.436;2024-02-23T00:37:31;97703.25;;;7.30;81.23
40730;BME280;26418;50.070;8.436;2024-02-23T00:40:07;97712.56;;;7.32;81.28
40730;BME280;26418;50.070;8.436;2024-02-23T00:42:34;97721.09;;;7.34;79.78
40730;BME280;26418;50.070;8.436;2024-02-23T00:45:03;97732.19;;;7.33;79.29
40730;BME280;26418;50.070;8.436;2024-02-23T00:47:31;97735.88;;;7.28;79.32
40730;BME280;26418;50.070;8.436;2024-02-23T00:49:57;97742.03;;;7.29;79.63
40730;BME280;26418;50.070;8.436;2024-02-23T00:52:22;97731.81;;;7.22;79.88
40730;BME280;26418;50.070;8.436;2024-02-23T00:54:48;97727.44;;;7.17;79.20
40730;BME280;26418;50.070;8.436;2024-02-23T00:57:16;97736.41;;;7.21;80.01
40730;BME280;26418;50.070;8.436;2024-02-23T00:59:44;97738.50;;;7.16;80.39
40730;BME280;26418;50.070;8.436;2024-02-23T01:02:09;97743.88;;;7.16;80.96
40730;BME280;26418;50.070;8.436;2024-02-23T01:04:35;97759.25;;;7.15;81.54
40730;BME280;26418;50.070;8.436;2024-02-23T01:07:01;97759.13;;;7.12;81.02
40730;BME280;26418;50.070;8.436;2024-02-23T01:09:26;97776.72;;;7.21;81.15
40730;BME280;26418;50.070;8.436;2024-02-23T01:11:52;97769.66;;;7.17;80.92
40730;BME280;26418;50.070;8.436;2024-02-23T01:14:17;97756.84;;;7.01;80.90
40730;BME280;26418;50.070;8.436;2024-02-23T01:16:43;97779.56;;;7.04;82.53
40730;BME280;26418;50.070;8.436;2024-02-23T01:19:12;97791.66;;;6.98;83.21
40730;BME280;26418;50.070;8.436;2024-02-23T01:21:37;97788.72;;;6.90;83.72
40730;BME280;26418;50.070;8.436;2024-02-23T01:24:03;97800.44;;;6.86;83.25
40730;BME280;26418;50.070;8.436;2024-02-23T01:26:29;97787.38;;;6.75;83.56
40730;BME280;26418;50.070;8.436;2024-02-23T01:28:55;97800.03;;;6.75;83.90
40730;BME280;26418;50.070;8.436;2024-02-23T01:31:20;97802.72;;;6.75;83.50
40730;BME280;26418;50.070;8.436;2024-02-23T01:33:46;97823.69;;;6.82;83.93
40730;BME280;26418;50.070;8.436;2024-02-23T01:36:12;97826.25;;;6.78;83.97
40730;BME280;26418;50.070;8.436;2024-02-23T01:38:38;97832.72;;;6.77;84.69
40730;BME280;26418;50.070;8.436;2024-02-23T01:41:03;97826.56;;;6.76;85.47
40730;BME280;26418;50.070;8.436;2024-02-23T01:43:32;97818.13;;;6.66;84.77
40730;BME280;26418;50.070;8.436;2024-02-23T01:45:59;97817.50;;;6.60;85.81
40730;BME280;26418;50.070;8.436;2024-02-23T01:48:24;97833.38;;;6.53;85.97
40730;BME280;26418;50.070;8.436;2024-02-23T01:50:50;97818.31;;;6.31;84.65
40730;BME280;26418;50.070;8.436;2024-02-23T01:53:16;97847.50;;;6.41;82.24
40730;BME280;26418;50.070;8.436;2024-02-23T01:55:45;97843.03;;;6.45;79.91
40730;BME280;26418;50.070;8.436;2024-02-23T01:58:11;97849.84;;;6.42;79.92
40730;BME280;26418;50.070;8.436;2024-02-23T02:00:37;97862.00;;;6.40;79.36
40730;BME280;26418;50.070;8.436;2024-02-23T02:03:03;97865.38;;;6.28;80.62
40730;BME280;26418;50.070;8.436;2024-02-23T02:05:28;97844.25;;;6.18;78.80
40730;BME280;26418;50.070;8.436;2024-02-23T02:08:00;97869.19;;;6.18;79.10
40730;BME280;26418;50.070;8.436;2024-02-23T02:10:26;97869.38;;;6.13;79.76
40730;BME280;26418;50.070;8.436;2024-02-23T02:12:52;97874.94;;;6.08;79.44
40730;BME280;26418;50.070;8.436;2024-02-23T02:15:20;97876.66;;;6.04;77.98
40730;BME280;26418;50.070;8.436;2024-02-23T02:17:53;97878.09;;;5.92;78.25
40730;BME280;26418;50.070;8.436;2024-02-23T02:20:18;97865.47;;;5.84;79.27
40730;BME280;26418;50.070;8.436;2024-02-23T02:22:48;97881.59;;;5.75;78.68
40730;BME280;26418;50.070;8.436;2024-02-23T02:25:32;97872.78;;;5.66;78.34
40730;BME280;26418;50.070;8.436;2024-02-23T02:28:01;97869.63;;;5.64;78.45
40730;BME280;26418;50.070;8.436;2024-02-23T02:30:27;97890.78;;;5.65;78.08
40730;BME280;26418;50.070;8.436;2024-02-23T02:32:56;97887.00;;;5.58;78.68
40730;BME280;26418;50.070;8.436;2024-02-23T02:35:21;97869.03;;;5.41;79.16
40730;BME280;26418;50.070;8.436;2024-02-23T02:37:47;97899.47;;;5.54;79.43
40730;BME280;26418;50.070;8.436;2024-02-23T02:40:13;97889.84;;;5.53;79.47
40730;BME280;26418;50.070;8.436;2024-02-23T02:42:41;97892.69;;;5.56;79.35
40730;BME280;26418;50.070;8.436;2024-02-23T02:45:07;97893.16;;;5.49;79.75
40730;BME280;26418;50.070;8.436;2024-02-23T02:47:33;97893.63;;;5.43;80.11
40730;BME280;26418;50.070;8.436;2024-02-23T02:49:59;97904.19;;;5.39;80.73
40730;BME280;26418;50.070;8.436;2024-02-23T02:52:27;97902.44;;;5.34;81.86
40730;BME280;26418;50.070;8.436;2024-02-23T02:54:54;97898.69;;;5.27;81.94
40730;BME280;26418;50.070;8.436;2024-02-23T02:57:25;97911.13;;;5.23;82.70
40730;BME280;26418;50.070;8.436;2024-02-23T02:59:51;97911.13;;;5.23;83.62
40730;BME280;26418;50.070;8.436;2024-02-23T03:02:17;97924.53;;;5.23;83.41
40730;BME280;26418;50.070;8.436;2024-02-23T03:04:51;97923.41;;;5.24;82.44
40730;BME280;26418;50.070;8.436;2024-02-23T03:10:42;97932.41;;;5.10;81.94
40730;BME280;26418;50.070;8.436;2024-02-23T03:13:08;97940.59;;;5.14;82.87
40730;BME280;26418;50.070;8.436;2024-02-23T03:15:33;97932.56;;;5.14;82.84
40730;BME280;26418;50.070;8.436;2024-02-23T03:17:59;97944.22;;;5.18;82.02
40730;BME280;26418;50.070;8.436;2024-02-23T03:20:29;97934.47;;;5.22;81.91
40730;BME280;26418;50.070;8.436;2024-02-23T03:26:16;97939.38;;;5.29;82.70
40730;BME280;26418;50.070;8.436;2024-02-23T03:28:42;97935.56;;;5.30;82.81
40730;BME280;26418;50.070;8.436;2024-02-23T03:31:08;97940.31;;;5.33;83.10
40730;BME280;26418;50.070;8.436;2024-02-23T03:33:34;97943.75;;;5.33;83.44
40730;BME280;26418;50.070;8.436;2024-02-23T03:35:59;97942.03;;;5.29;83.68
40730;BME280;26418;50.070;8.436;2024-02-23T03:38:27;97939.03;;;5.30;83.56
40730;BME280;26418;50.070;8.436;2024-02-23T03:40:55;97935.72;;;5.33;82.86
40730;BME280;26418;50.070;8.436;2024-02-23T03:43:21;97937.91;;;5.23;83.30
40730;BME280;26418;50.070;8.436;2024-02-23T03:45:46;97931.75;;;5.13;84.23
40730;BME280;26418;50.070;8.436;2024-02-23T03:48:12;97924.34;;;5.01;85.26
40730;BME280;26418;50.070;8.436;2024-02-23T03:50:37;97926.38;;;4.96;85.33
40730;BME280;26418;50.070;8.436;2024-02-23T03:53:03;97939.75;;;4.96;86.50
40730;BME280;26418;50.070;8.436;2024-02-23T03:55:29;97926.97;;;4.75;86.87
40730;BME280;26418;50.070;8.436;2024-02-23T03:57:54;97952.81;;;4.80;87.77
40730;BME280;26418;50.070;8.436;2024-02-23T04:00:20;97958.00;;;4.76;88.73
40730;BME280;26418;50.070;8.436;2024-02-23T04:02:50;97950.22;;;4.57;89.02
40730;BME280;26418;50.070;8.436;2024-02-23T04:05:16;97963.94;;;4.64;89.72
40730;BME280;26418;50.070;8.436;2024-02-23T04:07:41;97950.97;;;4.49;90.02
40730;BME280;26418;50.070;8.436;2024-02-23T04:10:07;97969.09;;;4.52;90.33
40730;BME280;26418;50.070;8.436;2024-02-23T04:12:48;97967.81;;;4.49;91.14
40730;BME280;26418;50.070;8.436;2024-02-23T04:15:13;97963.06;;;4.46;91.82
40730;BME280;26418;50.070;8.436;2024-02-23T04:17:39;97978.53;;;4.49;92.00
40730;BME280;26418;50.070;8.436;2024-02-23T04:20:07;97978.53;;;4.49;92.45
40730;BME280;26418;50.070;8.436;2024-02-23T04:22:34;97974.13;;;4.53;92.27
40730;BME280;26418;50.070;8.436;2024-02-23T04:25:04;97970.34;;;4.54;91.96
40730;BME280;26418;50.070;8.436;2024-02-23T04:27:39;97971.00;;;4.60;92.03
40730;BME280;26418;50.070;8.436;2024-02-23T04:30:05;97966.75;;;4.59;91.52
40730;BME280;26418;50.070;8.436;2024-02-23T04:32:31;97972.59;;;4.61;91.54
40730;BME280;26418;50.070;8.436;2024-02-23T04:34:56;97968.66;;;4.67;91.48
40730;BME280;26418;50.070;8.436;2024-02-23T04:37:22;97967.88;;;4.67;91.14
40730;BME280;26418;50.070;8.436;2024-02-23T04:39:48;97962.53;;;4.67;91.15
40730;BME280;26418;50.070;8.436;2024-02-23T04:42:13;97966.31;;;4.66;90.78
40730;BME280;26418;50.070;8.436;2024-02-23T04:44:45;97965.34;;;4.62;91.27
40730;BME280;26418;50.070;8.436;2024-02-23T04:47:17;97945.75;;;4.44;91.47
40730;BME280;26418;50.070;8.436;2024-02-23T04:49:48;97958.19;;;4.39;91.27
40730;BME280;26418;50.070;8.436;2024-02-23T04:52:24;97979.41;;;4.36;91.70
40730;BME280;26418;50.070;8.436;2024-02-23T04:54:49;97960.41;;;4.15;91.84
40730;BME280;26418;50.070;8.436;2024-02-23T04:57:18;97976.28;;;4.11;92.29
40730;BME280;26418;50.070;8.436;2024-02-23T04:59:43;97973.72;;;4.06;92.57
40730;BME280;26418;50.070;8.436;2024-02-23T05:02:09;97988.50;;;4.03;93.16
40730;BME280;26418;50.070;8.436;2024-02-23T05:04:37;97973.78;;;3.92;93.64
40730;BME280;26418;50.070;8.436;2024-02-23T05:07:06;97983.88;;;3.95;94.11
40730;BME280;26418;50.070;8.436;2024-02-23T05:09:31;97986.97;;;3.88;94.24
40730;BME280;26418;50.070;8.436;2024-02-23T05:11:57;97979.50;;;3.76;94.56
40730;BME280;26418;50.070;8.436;2024-02-23T05:14:23;97980.72;;;3.70;95.11
40730;BME280;26418;50.070;8.436;2024-02-23T05:16:48;97968.66;;;3.59;95.06
40730;BME280;26418;50.070;8.436;2024-02-23T05:19:17;97981.53;;;3.57;95.67
40730;BME280;26418;50.070;8.436;2024-02-23T05:21:42;97995.38;;;3.59;96.21
40730;BME280;26418;50.070;8.436;2024-02-23T05:24:10;97993.16;;;3.52;96.23
40730;BME280;26418;50.070;8.436;2024-02-23T05:26:36;98001.44;;;3.51;96.82
40730;BME280;26418;50.070;8.436;2024-02-23T05:29:02;97998.91;;;3.45;97.17
40730;BME280;26418;50.070;8.436;2024-02-23T05:31:47;98000.09;;;3.39;97.57
40730;BME280;26418;50.070;8.436;2024-02-23T05:34:15;97990.91;;;3.32;98.01
40730;BME280;26418;50.070;8.436;2024-02-23T05:36:42;97996.44;;;3.35;98.56
40730;BME280;26418;50.070;8.436;2024-02-23T05:39:08;97984.78;;;3.31;99.15
40730;BME280;26418;50.070;8.436;2024-02-23T05:41:35;97993.97;;;3.39;99.47
40730;BME280;26418;50.070;8.436;2024-02-23T05:44:03;97991.19;;;3.44;99.79
40730;BME280;26418;50.070;8.436;2024-02-23T05:46:39;97978.22;;;3.37;99.93
40730;BME280;26418;50.070;8.436;2024-02-23T05:49:05;97991.06;;;3.49;100.00
40730;BME280;26418;50.070;8.436;2024-02-23T05:51:33;97981.66;;;3.52;100.00
40730;BME280;26418;50.070;8.436;2024-02-23T05:54:03;97993.44;;;3.51;100.00
40730;BME280;26418;50.070;8.436;2024-02-23T05:56:29;97999.09;;;3.49;100.00
40730;BME280;26418;50.070;8.436;2024-02-23T05:58:55;97979.91;;;3.33;100.00
40730;BME280;26418;50.070;8.436;2024-02-23T06:01:20;98006.09;;;3.45;100.00
40730;BME280;26418;50.070;8.436;2024-02-23T06:03:46;97991.47;;;3.42;100.00
40730;BME280;26418;50.070;8.436;2024-02-23T06:06:14;97996.81;;;3.42;100.00
40730;BME280;26418;50.070;8.436;2024-02-23T06:08:43;97992.56;;;3.41;100.00
40730;BME280;26418;50.070;8.436;2024-02-23T06:11:17;98004.50;;;3.58;100.00
40730;BME280;26418;50.070;8.436;2024-02-23T06:13:43;98004.22;;;3.59;100.00
40730;BME280;26418;50.070;8.436;2024-02-23T06:16:14;97989.25;;;3.58;100.00
40730;BME280;26418;50.070;8.436;2024-02-23T06:18:41;98008.72;;;3.73;100.00
40730;BME280;26418;50.070;8.436;2024-02-23T06:21:18;98005.44;;;3.76;100.00
40730;BME280;26418;50.070;8.436;2024-02-23T06:23:44;98016.69;;;3.87;100.00
40730;BME280;26418;50.070;8.436;2024-02-23T06:26:11;98016.03;;;4.04;100.00
40730;BME280;26418;50.070;8.436;2024-02-23T06:28:37;98009.47;;;4.10;100.00
40730;BME280;26418;50.070;8.436;2024-02-23T06:31:05;98024.31;;;4.16;100.00
40730;BME280;26418;50.070;8.436;2024-02-23T06:33:33;98018.41;;;4.05;100.00
40730;BME280;26418;50.070;8.436;2024-02-23T06:35:59;98035.41;;;4.09;100.00
40730;BME280;26418;50.070;8.436;2024-02-23T06:38:25;98036.63;;;4.03;100.00
40730;BME280;26418;50.070;8.436;2024-02-23T06:40:56;98032.88;;;4.04;100.00
40730;BME280;26418;50.070;8.436;2024-02-23T06:43:22;98042.84;;;4.13;100.00
40730;BME280;26418;50.070;8.436;2024-02-23T06:45:50;98046.63;;;4.12;100.00
40730;BME280;26418;50.070;8.436;2024-02-23T06:48:16;98040.28;;;4.07;99.29
40730;BME280;26418;50.070;8.436;2024-02-23T06:50:42;98046.31;;;4.13;98.43
40730;BME280;26418;50.070;8.436;2024-02-23T06:53:08;98045.53;;;4.13;98.13
40730;BME280;26418;50.070;8.436;2024-02-23T06:55:36;98060.34;;;4.19;97.23
40730;BME280;26418;50.070;8.436;2024-02-23T06:58:05;98046.06;;;4.23;96.88
40730;BME280;26418;50.070;8.436;2024-02-23T07:00:32;98052.59;;;4.31;97.44
40730;BME280;26418;50.070;8.436;2024-02-23T07:03:02;98026.00;;;4.35;96.74
40730;BME280;26418;50.070;8.436;2024-02-23T07:05:32;98039.09;;;4.45;95.91
40730;BME280;26418;50.070;8.436;2024-02-23T07:07:57;98043.72;;;4.53;95.79
40730;BME280;26418;50.070;8.436;2024-02-23T07:10:23;98031.28;;;4.49;95.62
40730;BME280;26418;50.070;8.436;2024-02-23T07:12:50;98046.09;;;4.55;95.33
40730;BME280;26418;50.070;8.436;2024-02-23T07:15:19;98040.75;;;4.55;95.35
40730;BME280;26418;50.070;8.436;2024-02-23T07:17:45;98043.53;;;4.50;94.17
40730;BME280;26418;50.070;8.436;2024-02-23T07:20:11;98039.66;;;4.56;94.09
40730;BME280;26418;50.070;8.436;2024-02-23T07:22:37;98035.56;;;4.59;94.45
40730;BME280;26418;50.070;8.436;2024-02-23T07:25:03;98051.25;;;4.74;94.73
40730;BME280;26418;50.070;8.436;2024-02-23T07:27:32;98042.25;;;4.70;92.67
40730;BME280;26418;50.070;8.436;2024-02-23T07:30:00;97996.78;;;4.47;92.57
40730;BME280;26418;50.070;8.436;2024-02-23T07:32:26;98046.06;;;4.78;92.51
40730;BME280;26418;50.070;8.436;2024-02-23T07:34:52;98044.34;;;4.82;91.92
40730;BME280;26418;50.070;8.436;2024-02-23T07:37:18;98039.78;;;4.82;91.28
40730;BME280;26418;50.070;8.436;2024-02-23T07:39:43;98037.41;;;4.81;90.73
40730;BME280;26418;50.070;8.436;2024-02-23T07:42:12;98052.59;;;4.94;89.49
40730;BME280;26418;50.070;8.436;2024-02-23T07:44:40;98057.81;;;4.99;88.93
40730;BME280;26418;50.070;8.436;2024-02-23T07:47:08;98054.19;;;5.04;88.54
40730;BME280;26418;50.070;8.436;2024-02-23T07:49:34;98051.56;;;5.13;88.04
40730;BME280;26418;50.070;8.436;2024-02-23T07:51:59;98060.09;;;5.24;88.53
40730;BME280;26418;50.070;8.436;2024-02-23T07:54:25;98052.72;;;5.29;88.54
40730;BME280;26418;50.070;8.436;2024-02-23T07:56:54;98049.09;;;5.34;87.57
40730;BME280;26418;50.070;8.436;2024-02-23T07:59:19;98068.53;;;5.48;85.58
40730;BME280;26418;50.070;8.436;2024-02-23T08:01:48;98066.97;;;5.56;85.93
40730;BME280;26418;50.070;8.436;2024-02-23T08:04:16;98067.09;;;5.51;84.24
40730;BME280;26418;50.070;8.436;2024-02-23T08:06:42;98085.75;;;5.65;83.95
40730;BME280;26418;50.070;8.436;2024-02-23T08:09:08;98083.53;;;5.58;83.82
40730;BME280;26418;50.070;8.436;2024-02-23T08:11:34;98091.28;;;5.69;84.24
40730;BME280;26418;50.070;8.436;2024-02-23T08:14:01;98088.75;;;5.72;83.40
40730;BME280;26418;50.070;8.436;2024-02-23T08:16:31;98080.09;;;5.75;83.14
40730;BME280;26418;50.070;8.436;2024-02-23T08:18:56;98080.56;;;5.77;82.83
40730;BME280;26418;50.070;8.436;2024-02-23T08:21:22;98085.94;;;5.86;82.63
40730;BME280;26418;50.070;8.436;2024-02-23T08:23:47;98084.22;;;5.90;82.25
40730;BME280;26418;50.070;8.436;2024-02-23T08:26:13;98085.47;;;5.93;81.45
40730;BME280;26418;50.070;8.436;2024-02-23T08:28:39;98090.88;;;6.02;81.27
40730;BME280;26418;50.070;8.436;2024-02-23T08:31:07;98083.91;;;6.01;80.75
40730;BME280;26418;50.070;8.436;2024-02-23T08:33:32;98085.97;;;6.04;80.91
40730;BME280;26418;50.070;8.436;2024-02-23T08:35:58;98098.78;;;6.16;81.62
40730;BME280;26418;50.070;8.436;2024-02-23T08:38:24;98094.38;;;6.20;81.77
40730;BME280;26418;50.070;8.436;2024-02-23T08:40:49;98097.03;;;6.28;81.45
40730;BME280;26418;50.070;8.436;2024-02-23T08:43:15;98100.97;;;6.31;80.45
40730;BME280;26418;50.070;8.436;2024-02-23T08:45:41;98099.41;;;6.39;80.16
40730;BME280;26418;50.070;8.436;2024-02-23T08:48:07;98093.88;;;6.26;79.04
40730;BME280;26418;50.070;8.436;2024-02-23T08:50:41;98084.25;;;6.34;79.16
40730;BME280;26418;50.070;8.436;2024-02-23T08:53:07;98100.81;;;6.45;78.99
40730;BME280;26418;50.070;8.436;2024-02-23T08:55:33;98094.19;;;6.42;79.17
40730;BME280;26418;50.070;8.436;2024-02-23T08:57:59;98106.19;;;6.45;78.75
40730;BME280;26418;50.070;8.436;2024-02-23T09:00:24;98113.47;;;6.44;78.66
40730;BME280;26418;50.070;8.436;2024-02-23T09:02:50;98106.34;;;6.40;78.87
40730;BME280;26418;50.070;8.436;2024-02-23T09:05:19;98112.97;;;6.25;79.19
40730;BME280;26418;50.070;8.436;2024-02-23T09:07:46;98118.69;;;6.23;79.85
40730;BME280;26418;50.070;8.436;2024-02-23T09:10:11;98114.09;;;6.15;79.95
40730;BME280;26418;50.070;8.436;2024-02-23T09:12:37;98112.22;;;6.24;81.20
40730;BME280;26418;50.070;8.436;2024-02-23T09:15:04;98116.78;;;6.33;80.41
40730;BME280;26418;50.070;8.436;2024-02-23T09:17:30;98127.03;;;6.39;80.40
40730;BME280;26418;50.070;8.436;2024-02-23T09:19:56;98110.31;;;6.34;79.87
40730;BME280;26418;50.070;8.436;2024-02-23T09:22:21;98112.81;;;6.39;80.76
40730;BME280;26418;50.070;8.436;2024-02-23T09:24:48;98116.78;;;6.50;80.54
40730;BME280;26418;50.070;8.436;2024-02-23T09:27:13;98118.00;;;6.61;80.04
40730;BME280;26418;50.070;8.436;2024-02-23T09:29:40;98101.75;;;6.67;79.50
40730;BME280;26418;50.070;8.436;2024-02-23T09:32:09;98102.97;;;6.78;78.18
40730;BME280;26418;50.070;8.436;2024-02-23T09:34:35;98105.78;;;6.90;78.36
40730;BME280;26418;50.070;8.436;2024-02-23T09:37:01;98095.00;;;6.99;78.52
40730;BME280;26418;50.070;8.436;2024-02-23T09:39:27;98102.78;;;7.31;79.19
40730;BME280;26418;50.070;8.436;2024-02-23T09:41:55;98091.81;;;7.45;80.30
40730;BME280;26418;50.070;8.436;2024-02-23T09:44:34;98075.84;;;7.69;79.23
40730;BME280;26418;50.070;8.436;2024-02-23T09:47:03;98068.31;;;7.84;75.19
40730;BME280;26418;50.070;8.436;2024-02-23T09:49:40;98064.84;;;7.83;73.64
40730;BME280;26418;50.070;8.436;2024-02-23T09:52:09;98085.19;;;7.93;72.58
40730;BME280;26418;50.070;8.436;2024-02-23T09:54:38;98088.13;;;8.00;72.62
40730;BME280;26418;50.070;8.436;2024-02-23T09:57:07;98092.41;;;8.23;71.59
40730;BME280;26418;50.070;8.436;2024-02-23T09:59:34;98091.41;;;8.27;70.38
40730;BME280;26418;50.070;8.436;2024-02-23T10:02:01;98075.25;;;8.27;69.34
40730;BME280;26418;50.070;8.436;2024-02-23T10:04:39;98084.22;;;8.31;69.65
40730;BME280;26418;50.070;8.436;2024-02-23T10:07:09;98086.56;;;8.21;70.44
40730;BME280;26418;50.070;8.436;2024-02-23T10:09:37;98096.34;;;8.25;70.55
40730;BME280;26418;50.070;8.436;2024-02-23T10:12:09;98091.34;;;8.15;70.25
40730;BME280;26418;50.070;8.436;2024-02-23T10:14:34;98076.63;;;8.12;70.77
40730;BME280;26418;50.070;8.436;2024-02-23T10:17:00;98076.75;;;8.16;70.68
40730;BME280;26418;50.070;8.436;2024-02-23T10:19:27;98080.38;;;8.20;71.43
40730;BME280;26418;50.070;8.436;2024-02-23T10:21:55;98093.25;;;8.36;71.49
40730;BME280;26418;50.070;8.436;2024-02-23T10:24:22;98086.41;;;8.38;70.46
40730;BME280;26418;50.070;8.436;2024-02-23T10:26:51;98096.94;;;8.31;70.74
40730;BME280;26418;50.070;8.436;2024-02-23T10:29:20;98096.34;;;8.25;70.57
40730;BME280;26418;50.070;8.436;2024-02-23T10:31:47;98085.56;;;8.04;69.56
40730;BME280;26418;50.070;8.436;2024-02-23T10:34:19;98081.84;;;7.96;70.42
40730;BME280;26418;50.070;8.436;2024-02-23T10:36:46;98091.41;;;8.06;71.00
40730;BME280;26418;50.070;8.436;2024-02-23T10:39:16;98089.00;;;8.13;70.14
40730;BME280;26418;50.070;8.436;2024-02-23T10:41:47;98082.88;;;8.25;71.10
40730;BME280;26418;50.070;8.436;2024-02-23T10:44:20;98084.63;;;8.42;69.98
40730;BME280;26418;50.070;8.436;2024-02-23T10:46:46;98087.13;;;8.47;69.60
40730;BME280;26418;50.070;8.436;2024-02-23T10:49:14;98090.78;;;8.64;68.30
40730;BME280;26418;50.070;8.436;2024-02-23T10:51:47;98092.72;;;8.76;68.30
40730;BME280;26418;50.070;8.436;2024-02-23T10:54:15;98093.78;;;8.96;68.10
40730;BME280;26418;50.070;8.436;2024-02-23T10:56:47;98086.72;;;9.04;67.94
40730;BME280;26418;50.070;8.436;2024-02-23T10:59:13;98092.47;;;9.15;66.32
40730;BME280;26418;50.070;8.436;2024-02-23T11:01:39;98090.09;;;9.25;66.95
40730;BME280;26418;50.070;8.436;2024-02-23T11:04:09;98090.34;;;9.20;66.76
40730;BME280;26418;50.070;8.436;2024-02-23T11:06:41;98080.53;;;9.28;67.16
40730;BME280;26418;50.070;8.436;2024-02-23T11:09:07;98079.44;;;9.29;66.58
40730;BME280;26418;50.070;8.436;2024-02-23T11:11:34;98070.66;;;9.07;65.48
40730;BME280;26418;50.070;8.436;2024-02-23T11:14:02;98083.03;;;9.08;65.52
40730;BME280;26418;50.070;8.436;2024-02-23T11:16:31;98084.25;;;9.11;66.43
40730;BME280;26418;50.070;8.436;2024-02-23T11:19:06;98077.06;;;9.15;66.25
40730;BME280;26418;50.070;8.436;2024-02-23T11:21:37;98067.84;;;9.04;66.09
40730;BME280;26418;50.070;8.436;2024-02-23T11:24:04;98080.31;;;9.08;67.21
40730;BME280;26418;50.070;8.436;2024-02-23T11:26:30;98092.47;;;9.02;67.23
40730;BME280;26418;50.070;8.436;2024-02-23T11:28:57;98093.53;;;8.76;72.35
40730;BME280;26418;50.070;8.436;2024-02-23T11:31:24;98093.84;;;8.41;75.52
40730;BME280;26418;50.070;8.436;2024-02-23T11:36:35;98070.22;;;8.05;80.04
40730;BME280;26418;50.070;8.436;2024-02-23T11:39:03;98026.75;;;7.94;79.54
40730;BME280;26418;50.070;8.436;2024-02-23T11:41:29;98075.25;;;8.48;79.41
40730;BME280;26418;50.070;8.436;2024-02-23T11:43:55;98054.19;;;8.42;75.19
40730;BME280;26418;50.070;8.436;2024-02-23T11:46:33;98056.44;;;8.40;73.54
